Time;durP1;ratioP1;P1;durP2;ratioP2;P2;SDS_P1;SDS_P2;PMS_P1;PMS_P2;Temp;Humidity;BMP_temperature;BMP_pressure;BME280_temperature;BME280_humidity;BME280_pressure;Samples;Min_cycle;Max_cycle;Signal;HPM_P1;HPM_P2
2022/12/28 00:01:08;;;;;;;6.37;5.90;;;4.70;1.00;;;;;;6302013;28;20990;-55
2022/12/28 00:04:14;;;;;;;6.03;5.50;;;4.90;1.00;;;;;;6300312;28;20653;-56
2022/12/28 00:07:17;;;;;;;7.47;6.87;;;5.00;1.00;;;;;;6300930;28;20255;-55
2022/12/28 00:10:20;;;;;;;7.43;6.83;;;4.90;1.00;;;;;;6299483;28;20236;-56
2022/12/28 00:13:44;;;;;;;7.17;6.60;;;5.00;1.00;;;;;;6283455;28;20294;-55
2022/12/28 00:16:48;;;;;;;6.57;6.13;;;5.00;1.00;;;;;;6283778;28;20737;-55
2022/12/28 00:19:51;;;;;;;7.77;6.50;;;4.90;1.00;;;;;;6283630;28;20289;-55
2022/12/28 00:22:54;;;;;;;9.20;6.13;;;4.70;1.00;;;;;;6276127;28;20245;-56
2022/12/28 00:26:05;;;;;;;8.27;7.27;;;4.90;1.00;;;;;;6282869;28;20237;-54
2022/12/28 00:29:09;;;;;;;7.43;6.43;;;4.90;1.00;;;;;;6283883;28;20629;-56
2022/12/28 00:32:13;;;;;;;7.50;6.60;;;4.80;1.00;;;;;;6280885;28;20233;-56
2022/12/28 00:35:16;;;;;;;9.33;6.33;;;5.10;1.00;;;;;;6280010;28;20725;-56
2022/12/28 00:38:19;;;;;;;8.57;5.80;;;4.80;1.00;;;;;;6300105;28;20233;-56
2022/12/28 00:41:22;;;;;;;6.37;5.93;;;4.80;1.00;;;;;;6276678;28;20241;-59
2022/12/28 00:44:25;;;;;;;5.90;5.50;;;4.90;1.00;;;;;;6283679;28;20256;-55
2022/12/28 00:47:29;;;;;;;6.87;6.23;;;5.10;1.00;;;;;;6283549;28;20237;-56
2022/12/28 00:50:32;;;;;;;6.23;5.83;;;4.80;1.00;;;;;;6283489;28;20260;-56
2022/12/28 00:53:36;;;;;;;5.70;5.40;;;5.10;1.00;;;;;;6284224;28;20267;-56
2022/12/28 00:56:41;;;;;;;6.47;5.90;;;5.10;1.00;;;;;;6285012;28;20810;-56
2022/12/28 00:59:44;;;;;;;5.97;5.40;;;5.10;1.00;;;;;;6283702;28;20241;-56
2022/12/28 01:02:48;;;;;;;8.57;6.33;;;5.10;1.00;;;;;;6306028;28;20260;-56
2022/12/28 01:05:51;;;;;;;5.93;5.50;;;5.10;1.00;;;;;;6292595;28;20316;-55
2022/12/28 01:08:55;;;;;;;5.83;5.43;;;5.10;1.00;;;;;;6307462;27;20497;-54
2022/12/28 01:11:58;;;;;;;6.10;5.60;;;5.20;1.00;;;;;;6274953;28;20237;-56
2022/12/28 01:15:02;;;;;;;7.60;5.57;;;5.50;1.00;;;;;;6284100;28;20245;-56
2022/12/28 01:18:06;;;;;;;7.50;5.63;;;5.10;1.00;;;;;;6283263;28;20635;-55
2022/12/28 01:21:12;;;;;;;6.87;5.50;;;5.20;1.00;;;;;;6283505;28;20245;-56
2022/12/28 01:24:15;;;;;;;6.17;5.73;;;5.40;1.00;;;;;;6283038;28;20229;-56
2022/12/28 01:27:19;;;;;;;6.43;6.03;;;5.40;1.00;;;;;;6282719;28;20327;-56
2022/12/28 01:30:22;;;;;;;6.03;5.50;;;5.40;1.00;;;;;;6283218;28;20233;-54
2022/12/28 01:33:27;;;;;;;6.53;5.87;;;5.40;1.00;;;;;;6294712;28;20233;-55
2022/12/28 01:36:33;;;;;;;5.83;5.20;;;5.20;1.00;;;;;;6307016;28;20232;-56
2022/12/28 01:39:36;;;;;;;6.03;5.13;;;5.40;1.00;;;;;;6301652;28;20237;-55
2022/12/28 01:42:40;;;;;;;5.53;5.13;;;5.60;1.00;;;;;;6305971;28;20370;-55
2022/12/28 01:45:47;;;;;;;6.13;5.70;;;5.20;1.00;;;;;;6307682;28;20655;-56
2022/12/28 01:48:59;;;;;;;6.10;5.53;;;5.20;1.00;;;;;;6300779;28;20398;-55
2022/12/28 01:52:06;;;;;;;8.07;6.17;;;5.10;1.00;;;;;;6282325;28;20443;-55
2022/12/28 01:55:12;;;;;;;5.80;5.13;;;5.20;1.00;;;;;;6281937;28;20765;-55
2022/12/28 01:58:22;;;;;;;6.70;5.93;;;5.30;1.00;;;;;;6281711;28;20229;-54
2022/12/28 02:01:25;;;;;;;6.10;5.70;;;5.30;1.00;;;;;;6307005;28;20403;-56
2022/12/28 02:04:30;;;;;;;5.60;5.30;;;5.10;1.00;;;;;;6306281;28;20232;-55
2022/12/28 02:07:39;;;;;;;6.03;5.43;;;5.10;1.00;;;;;;6300525;28;20591;-55
2022/12/28 02:10:43;;;;;;;5.63;5.40;;;5.10;1.00;;;;;;6299940;28;20248;-55
2022/12/28 02:13:50;;;;;;;6.03;5.43;;;5.10;1.00;;;;;;6293314;28;20236;-56
2022/12/28 02:16:55;;;;;;;6.03;5.50;;;4.90;1.00;;;;;;6282274;28;20240;-55
2022/12/28 02:19:59;;;;;;;8.17;5.70;;;5.10;1.00;;;;;;6278314;28;20724;-55
2022/12/28 02:23:27;;;;;;;8.33;6.67;;;4.90;1.00;;;;;;6281573;28;20721;-55
2022/12/28 02:26:50;;;;;;;7.90;6.20;;;4.70;1.00;;;;;;6281940;28;20233;-54
2022/12/28 02:30:02;;;;;;;5.90;5.40;;;4.90;1.00;;;;;;6275235;28;20225;-57
2022/12/28 02:33:15;;;;;;;6.80;6.30;;;4.90;1.00;;;;;;6299032;28;20810;-55
2022/12/28 02:36:22;;;;;;;7.30;6.70;;;4.80;1.00;;;;;;6291495;28;20237;-54
2022/12/28 02:39:31;;;;;;;7.40;6.43;;;4.70;1.00;;;;;;6294651;28;20236;-55
2022/12/28 02:42:36;;;;;;;7.13;6.47;;;4.70;1.00;;;;;;6304910;28;20236;-55
2022/12/28 02:53:10;;;;;;;7.13;6.40;;;4.80;1.00;;;;;;6286509;28;20235;-56
2022/12/28 02:56:27;;;;;;;6.63;6.07;;;4.60;1.00;;;;;;6286134;28;20605;-55
2022/12/28 02:59:49;;;;;;;8.50;6.53;;;4.50;1.00;;;;;;6285543;28;20716;-55
2022/12/28 03:03:16;;;;;;;7.77;6.47;;;4.50;1.00;;;;;;6301714;28;20237;-56
2022/12/28 03:09:57;;;;;;;7.67;6.93;;;4.50;1.00;;;;;;6294165;28;20228;-55
2022/12/28 03:13:41;;;;;;;6.57;6.10;;;4.30;1.00;;;;;;6277645;28;20248;-56
2022/12/28 03:25:41;;;;;;;8.27;6.30;;;4.30;1.00;;;;;;6280633;28;20243;-56
2022/12/28 03:33:38;;;;;;;6.10;5.87;;;4.30;1.00;;;;;;6286584;28;20240;-56
2022/12/28 03:36:54;;;;;;;6.93;6.27;;;4.40;1.00;;;;;;6288893;28;20245;-56
2022/12/28 03:40:03;;;;;;;7.00;6.53;;;4.20;1.00;;;;;;6303628;28;20487;-56
2022/12/28 03:46:44;;;;;;;8.30;7.50;;;4.20;1.00;;;;;;6302457;28;20233;-55
2022/12/28 03:49:47;;;;;;;7.00;6.60;;;4.00;1.00;;;;;;6276981;28;20241;-55
2022/12/28 03:52:53;;;;;;;6.90;6.50;;;4.20;1.00;;;;;;6295791;28;20259;-55
2022/12/28 03:56:09;;;;;;;6.97;6.33;;;4.00;1.00;;;;;;6304548;28;20503;-56
2022/12/28 03:59:12;;;;;;;6.60;6.27;;;4.20;1.00;;;;;;6283457;28;20237;-54
2022/12/28 04:02:15;;;;;;;6.90;6.13;;;4.10;1.00;;;;;;6294571;28;20247;-55
2022/12/28 04:05:20;;;;;;;7.23;6.73;;;4.10;1.00;;;;;;6293978;28;20244;-55
2022/12/28 04:08:24;;;;;;;6.47;5.97;;;4.00;1.00;;;;;;6300398;27;20240;-55
2022/12/28 04:11:27;;;;;;;7.13;6.57;;;4.00;1.00;;;;;;6282481;28;20596;-61
2022/12/28 04:14:30;;;;;;;6.40;5.93;;;4.20;1.00;;;;;;6284572;28;20233;-56
2022/12/28 04:17:33;;;;;;;6.60;6.30;;;4.10;1.00;;;;;;6283845;28;20241;-55
2022/12/28 04:20:36;;;;;;;6.43;5.80;;;4.20;1.00;;;;;;6284647;28;20233;-56
2022/12/28 04:23:41;;;;;;;6.57;6.07;;;4.00;1.00;;;;;;6284614;28;20240;-56
2022/12/28 04:26:43;;;;;;;6.63;6.23;;;4.20;1.00;;;;;;6284356;28;20235;-57
2022/12/28 04:29:46;;;;;;;6.80;6.20;;;4.00;1.00;;;;;;6294999;28;20244;-56
2022/12/28 04:32:49;;;;;;;6.57;5.93;;;4.10;1.00;;;;;;6291743;28;20615;-56
2022/12/28 04:35:53;;;;;;;6.87;6.27;;;4.10;1.00;;;;;;6289777;28;20234;-56
2022/12/28 04:38:58;;;;;;;6.50;6.10;;;4.10;1.00;;;;;;6291731;28;20621;-56
2022/12/28 04:42:01;;;;;;;9.03;5.83;;;4.30;1.00;;;;;;6276218;28;20248;-55
2022/12/28 04:45:05;;;;;;;5.97;5.57;;;4.10;1.00;;;;;;6292240;28;20233;-55
2022/12/28 04:48:08;;;;;;;5.90;5.50;;;4.10;1.00;;;;;;6279749;28;20241;-56
2022/12/28 04:51:16;;;;;;;6.07;5.57;;;3.80;1.00;;;;;;6284383;28;20237;-55
2022/12/28 04:54:21;;;;;;;9.37;5.60;;;4.00;1.00;;;;;;6296547;28;20236;-56
2022/12/28 04:57:24;;;;;;;6.70;6.00;;;4.10;1.00;;;;;;6301706;28;20233;-55
2022/12/28 05:00:27;;;;;;;6.07;5.57;;;4.10;1.00;;;;;;6298614;28;20225;-55
2022/12/28 05:03:30;;;;;;;6.07;5.50;;;4.10;1.00;;;;;;6297844;28;20586;-55
2022/12/28 05:06:33;;;;;;;6.13;5.57;;;4.20;1.00;;;;;;6297753;28;20234;-57
2022/12/28 05:09:38;;;;;;;5.60;5.20;;;4.10;1.00;;;;;;6298296;28;20382;-56
2022/12/28 05:12:41;;;;;;;5.47;5.13;;;4.10;1.00;;;;;;6283682;28;20228;-55
2022/12/28 05:15:44;;;;;;;5.53;5.23;;;4.00;1.00;;;;;;6287988;28;20248;-56
2022/12/28 05:18:47;;;;;;;5.73;5.27;;;4.10;1.00;;;;;;6281129;28;20244;-56
2022/12/28 05:21:50;;;;;;;6.47;5.60;;;4.40;1.00;;;;;;6281888;28;20251;-56
2022/12/28 05:24:54;;;;;;;5.47;5.17;;;4.30;1.00;;;;;;6282005;28;20364;-56
2022/12/28 05:27:57;;;;;;;5.00;4.73;;;4.10;1.00;;;;;;6281572;28;20245;-55
2022/12/28 05:31:04;;;;;;;5.93;5.53;;;4.10;1.00;;;;;;6280228;28;20648;-56
2022/12/28 05:34:07;;;;;;;5.30;5.00;;;4.10;1.00;;;;;;6291187;28;20475;-56
2022/12/28 05:37:10;;;;;;;5.70;5.33;;;4.40;1.00;;;;;;6283697;28;20262;-55
2022/12/28 05:40:21;;;;;;;5.40;4.90;;;4.20;1.00;;;;;;6277125;28;20259;-54
2022/12/28 05:43:24;;;;;;;5.57;5.07;;;4.40;1.00;;;;;;6284352;28;20323;-55
2022/12/28 05:46:29;;;;;;;5.33;4.90;;;4.40;1.00;;;;;;6289035;28;20647;-55
2022/12/28 05:49:33;;;;;;;5.77;5.30;;;4.30;1.00;;;;;;6288550;28;20248;-56
2022/12/28 05:52:36;;;;;;;5.60;5.00;;;4.20;1.00;;;;;;6279082;28;20717;-55
2022/12/28 05:55:42;;;;;;;5.53;4.80;;;4.30;1.00;;;;;;6295396;28;20721;-56
2022/12/28 05:58:47;;;;;;;5.83;5.07;;;4.40;1.00;;;;;;6302484;28;20232;-56
2022/12/28 06:01:50;;;;;;;4.93;4.57;;;4.20;1.00;;;;;;6301948;28;20757;-57
2022/12/28 06:04:53;;;;;;;5.77;5.10;;;4.30;1.00;;;;;;6303640;28;20236;-57
2022/12/28 06:07:56;;;;;;;8.43;4.63;;;4.50;1.00;;;;;;6293777;28;21067;-57
2022/12/28 06:11:06;;;;;;;5.37;4.97;;;4.60;1.00;;;;;;6294503;28;20265;-55
2022/12/28 06:14:09;;;;;;;4.97;4.57;;;4.40;1.00;;;;;;6290552;28;20241;-56
2022/12/28 06:17:12;;;;;;;5.83;5.10;;;4.60;1.00;;;;;;6286814;28;20232;-56
2022/12/28 06:20:15;;;;;;;4.43;4.23;;;4.50;1.00;;;;;;6281113;28;20237;-55
2022/12/28 06:23:18;;;;;;;5.60;5.10;;;4.60;1.00;;;;;;6280820;28;20240;-55
2022/12/28 06:26:22;;;;;;;6.87;5.13;;;4.40;1.00;;;;;;6285315;28;20382;-55
2022/12/28 06:29:25;;;;;;;5.23;4.77;;;4.80;1.00;;;;;;6293562;28;20475;-56
2022/12/28 06:32:28;;;;;;;4.53;4.30;;;4.60;1.00;;;;;;6297332;28;20283;-56
2022/12/28 06:35:31;;;;;;;4.97;4.87;;;4.70;1.00;;;;;;6296672;28;20235;-54
2022/12/28 06:38:34;;;;;;;4.70;4.40;;;4.80;1.00;;;;;;6308934;28;20255;-56
2022/12/28 06:41:39;;;;;;;5.10;4.70;;;4.70;1.00;;;;;;6307936;28;20236;-57
2022/12/28 06:44:42;;;;;;;4.90;4.50;;;4.50;1.00;;;;;;6301669;28;20706;-55
2022/12/28 06:47:46;;;;;;;4.93;4.50;;;4.80;1.00;;;;;;6305570;28;20331;-56
2022/12/28 06:50:55;;;;;;;5.17;4.70;;;4.80;1.00;;;;;;6286659;28;20229;-56
2022/12/28 06:53:58;;;;;;;4.90;4.50;;;4.80;1.00;;;;;;6287136;28;20240;-56
2022/12/28 06:57:02;;;;;;;5.03;4.60;;;4.70;1.00;;;;;;6283561;28;20248;-56
2022/12/28 07:00:07;;;;;;;5.37;4.97;;;4.50;1.00;;;;;;6284457;28;20233;-55
2022/12/28 07:03:10;;;;;;;6.10;5.20;;;4.60;1.00;;;;;;6310076;28;20236;-54
2022/12/28 07:06:14;;;;;;;6.90;4.73;;;4.80;1.00;;;;;;6296185;28;20240;-56
2022/12/28 07:09:17;;;;;;;5.97;4.60;;;4.60;1.00;;;;;;6290577;28;20616;-56
2022/12/28 07:12:22;;;;;;;5.57;5.03;;;4.60;1.00;;;;;;6300702;28;20225;-55
2022/12/28 07:15:25;;;;;;;10.63;5.10;;;4.50;1.00;;;;;;6298663;28;20247;-57
2022/12/28 07:18:28;;;;;;;4.90;4.60;;;4.60;1.00;;;;;;6307068;28;20239;-56
2022/12/28 07:21:32;;;;;;;7.67;5.40;;;4.50;1.00;;;;;;6296828;28;20495;-60
2022/12/28 07:24:35;;;;;;;6.93;5.30;;;4.50;1.00;;;;;;6283757;28;20233;-55
2022/12/28 07:27:40;;;;;;;9.13;6.20;;;4.60;1.00;;;;;;6297852;28;20236;-56
2022/12/28 07:30:43;;;;;;;6.70;6.23;;;4.50;1.00;;;;;;6307990;28;20240;-56
2022/12/28 07:33:47;;;;;;;7.67;6.17;;;4.20;1.00;;;;;;6290741;28;20366;-56
2022/12/28 07:36:50;;;;;;;5.63;5.13;;;4.50;1.00;;;;;;6298706;28;20233;-58
2022/12/28 07:39:53;;;;;;;6.33;5.53;;;4.60;1.00;;;;;;6300408;28;20240;-55
2022/12/28 07:42:59;;;;;;;6.53;5.97;;;4.40;1.00;;;;;;6289647;28;20242;-56
2022/12/28 07:46:04;;;;;;;8.83;6.13;;;4.70;1.00;;;;;;6284254;28;20237;-55
2022/12/28 07:49:07;;;;;;;6.53;6.03;;;4.50;1.00;;;;;;6280822;28;20311;-55
2022/12/28 07:52:10;;;;;;;6.90;6.13;;;4.70;1.00;;;;;;6299108;28;20241;-56
2022/12/28 07:55:13;;;;;;;6.63;5.93;;;4.50;1.00;;;;;;6286126;28;20847;-55
2022/12/28 07:58:18;;;;;;;6.70;6.13;;;4.70;1.00;;;;;;6287587;28;20400;-56
2022/12/28 08:01:22;;;;;;;7.40;6.50;;;4.80;1.00;;;;;;6301377;28;20271;-56
2022/12/28 08:04:25;;;;;;;6.73;5.97;;;4.60;1.00;;;;;;6298099;28;20237;-56
2022/12/28 08:07:28;;;;;;;6.60;6.03;;;4.40;1.00;;;;;;6294910;28;20667;-56
2022/12/28 08:10:31;;;;;;;10.30;6.40;;;4.90;1.00;;;;;;6300088;28;20228;-56
2022/12/28 08:13:37;;;;;;;9.00;6.97;;;4.80;1.00;;;;;;6295955;28;20275;-56
2022/12/28 08:16:42;;;;;;;6.63;6.17;;;4.70;1.00;;;;;;6285545;28;20229;-55
2022/12/28 08:19:45;;;;;;;6.37;5.73;;;4.70;1.00;;;;;;6285442;28;20441;-56
2022/12/28 08:22:49;;;;;;;7.27;6.77;;;4.90;1.00;;;;;;6300125;28;20237;-56
2022/12/28 08:25:52;;;;;;;7.37;6.67;;;5.00;1.00;;;;;;6307430;28;20818;-56
2022/12/28 08:28:59;;;;;;;7.57;6.80;;;4.90;1.00;;;;;;6305825;28;20241;-55
2022/12/28 08:32:02;;;;;;;7.87;6.90;;;5.00;1.00;;;;;;6295417;28;20391;-56
2022/12/28 08:35:07;;;;;;;9.57;6.43;;;4.80;1.00;;;;;;6283705;28;20766;-56
2022/12/28 08:38:10;;;;;;;6.63;6.27;;;5.20;1.00;;;;;;6304085;28;20237;-55
2022/12/28 08:41:15;;;;;;;7.23;6.70;;;5.20;1.00;;;;;;6306043;28;20244;-60
2022/12/28 08:44:20;;;;;;;7.00;6.40;;;5.20;1.00;;;;;;6307196;28;20241;-56
2022/12/28 08:47:23;;;;;;;10.13;6.67;;;5.20;1.00;;;;;;6297702;28;20237;-55
2022/12/28 08:50:25;;;;;;;6.33;5.40;;;5.30;1.00;;;;;;6298061;28;20823;-56
2022/12/28 08:53:34;;;;;;;6.60;5.93;;;5.10;1.00;;;;;;6305536;28;20682;-54
2022/12/28 08:56:39;;;;;;;9.03;6.40;;;5.30;1.00;;;;;;6306692;28;20434;-55
2022/12/28 08:59:43;;;;;;;6.80;6.13;;;5.40;1.00;;;;;;6295327;28;20487;-58
2022/12/28 09:02:46;;;;;;;7.23;6.10;;;5.50;1.00;;;;;;6300471;28;20233;-56
2022/12/28 09:05:49;;;;;;;5.60;5.37;;;5.80;1.00;;;;;;6277559;28;20278;-55
2022/12/28 09:08:57;;;;;;;8.57;5.63;;;5.70;1.00;;;;;;6294209;28;20583;-56
2022/12/28 09:12:09;;;;;;;5.93;5.37;;;5.60;1.00;;;;;;6287098;28;20233;-54
2022/12/28 09:15:13;;;;;;;5.47;5.10;;;5.60;1.00;;;;;;6291674;28;20294;-56
2022/12/28 09:18:16;;;;;;;5.83;5.43;;;5.70;1.00;;;;;;6294500;28;20247;-56
2022/12/28 09:21:21;;;;;;;6.13;5.80;;;5.80;1.00;;;;;;6293593;28;20236;-56
2022/12/28 09:24:24;;;;;;;6.07;5.60;;;5.90;1.00;;;;;;6280611;28;20244;-56
2022/12/28 09:27:27;;;;;;;5.73;5.43;;;5.60;1.00;;;;;;6277692;28;20230;-54
2022/12/28 09:30:31;;;;;;;5.70;5.27;;;5.90;1.00;;;;;;6303168;28;20236;-56
2022/12/28 09:37:15;;;;;;;5.43;5.13;;;6.20;1.00;;;;;;6287473;28;20249;-55
2022/12/28 09:40:18;;;;;;;6.20;5.37;;;6.00;1.00;;;;;;6295346;27;20225;-56
2022/12/28 09:43:21;;;;;;;5.40;5.00;;;5.90;1.00;;;;;;6284095;28;20732;-55
2022/12/28 09:46:26;;;;;;;5.70;5.30;;;5.80;1.00;;;;;;6295529;28;20598;-55
2022/12/28 09:49:38;;;;;;;6.03;5.70;;;6.10;1.00;;;;;;6305623;28;20320;-55
2022/12/28 09:52:48;;;;;;;6.07;5.57;;;6.20;1.00;;;;;;6296041;28;20615;-57
2022/12/28 09:55:58;;;;;;;7.13;6.37;;;6.40;1.00;;;;;;6292441;28;20276;-56
2022/12/28 09:59:03;;;;;;;5.87;5.47;;;6.30;1.00;;;;;;6303066;28;20247;-56
2022/12/28 10:02:23;;;;;;;7.47;5.47;;;6.20;1.00;;;;;;6293260;28;20240;-56
2022/12/28 10:05:26;;;;;;;6.03;5.50;;;6.40;1.00;;;;;;6284694;28;20233;-55
2022/12/28 10:08:30;;;;;;;5.33;4.93;;;6.40;1.00;;;;;;6300926;28;20391;-56
2022/12/28 10:11:37;;;;;;;5.80;5.40;;;6.70;1.00;;;;;;6279592;28;20682;-57
2022/12/28 10:14:40;;;;;;;5.33;5.03;;;6.60;1.00;;;;;;6286533;28;20366;-55
2022/12/28 10:17:45;;;;;;;5.07;4.77;;;6.70;1.00;;;;;;6297202;28;20520;-55
2022/12/28 10:20:49;;;;;;;5.27;4.97;;;6.60;1.00;;;;;;6302284;28;20704;-56
2022/12/28 10:23:55;;;;;;;5.10;4.80;;;6.50;1.00;;;;;;6293772;28;20613;-54
2022/12/28 10:27:23;;;;;;;4.77;4.50;;;6.80;1.00;;;;;;6280089;28;20279;-56
2022/12/28 10:30:27;;;;;;;4.93;4.70;;;6.70;1.00;;;;;;6275734;28;20241;-56
2022/12/28 10:33:31;;;;;;;5.37;5.13;;;6.50;1.00;;;;;;6290988;28;20236;-55
2022/12/28 10:36:34;;;;;;;5.63;4.97;;;6.70;1.00;;;;;;6286691;28;20322;-56
2022/12/28 10:39:37;;;;;;;5.33;5.03;;;6.70;1.00;;;;;;6307280;28;20240;-57
2022/12/28 10:42:45;;;;;;;6.67;4.50;;;6.60;1.00;;;;;;6287398;28;20232;-55
2022/12/28 10:45:50;;;;;;;5.20;4.90;;;6.80;1.00;;;;;;6287737;28;20251;-57
2022/12/28 10:48:58;;;;;;;5.50;5.10;;;6.70;1.00;;;;;;6301340;28;20252;-55
2022/12/28 10:52:04;;;;;;;5.40;5.10;;;7.00;1.00;;;;;;6299924;28;20373;-57
2022/12/28 10:55:27;;;;;;;5.87;5.47;;;6.90;1.00;;;;;;6289458;28;20626;-56
2022/12/28 10:58:30;;;;;;;5.80;5.47;;;7.00;1.00;;;;;;6279486;28;20229;-54
2022/12/28 11:01:35;;;;;;;5.27;4.90;;;6.80;1.00;;;;;;6283860;28;20984;-56
2022/12/28 11:04:52;;;;;;;5.30;4.80;;;7.00;1.00;;;;;;6295238;28;20472;-56
2022/12/28 11:08:05;;;;;;;5.50;5.13;;;7.00;1.00;;;;;;6298611;27;20253;-56
2022/12/28 11:11:18;;;;;;;4.97;4.57;;;6.90;1.00;;;;;;6289407;28;20732;-55
2022/12/28 11:14:30;;;;;;;5.27;5.07;;;7.00;1.00;;;;;;6293310;28;20241;-57
2022/12/28 11:17:36;;;;;;;5.40;5.10;;;7.10;1.00;;;;;;6295348;28;20640;-56
2022/12/28 11:20:45;;;;;;;5.23;4.87;;;7.30;1.00;;;;;;6308015;28;20236;-61
2022/12/28 11:23:50;;;;;;;6.00;5.47;;;7.40;1.00;;;;;;6286686;28;20713;-56
2022/12/28 11:26:53;;;;;;;4.60;4.43;;;7.40;1.00;;;;;;6302483;28;20240;-57
2022/12/28 11:29:57;;;;;;;5.27;4.83;;;7.40;1.00;;;;;;6303808;28;20719;-56
2022/12/28 11:33:05;;;;;;;5.10;4.63;;;7.40;1.00;;;;;;6297779;28;20278;-57
2022/12/28 11:36:15;;;;;;;4.83;4.63;;;7.40;1.00;;;;;;6304773;28;20229;-56
2022/12/28 11:39:33;;;;;;;5.53;5.23;;;7.40;1.00;;;;;;6296854;28;20245;-58
2022/12/28 11:42:56;;;;;;;5.20;5.00;;;7.60;1.00;;;;;;6284038;28;20225;-56
2022/12/28 11:46:00;;;;;;;4.90;4.60;;;7.50;1.00;;;;;;6282653;28;20245;-55
2022/12/28 11:49:04;;;;;;;5.17;4.87;;;7.60;1.00;;;;;;6278735;28;20233;-55
2022/12/28 11:52:34;;;;;;;5.13;4.70;;;7.60;1.00;;;;;;6282027;28;20690;-55
2022/12/28 11:55:44;;;;;;;5.47;5.20;;;7.70;1.00;;;;;;6294341;28;20390;-56
2022/12/28 11:59:02;;;;;;;4.83;4.53;;;7.60;1.00;;;;;;6299500;28;20245;-56
2022/12/28 12:02:39;;;;;;;7.67;4.87;;;7.70;1.00;;;;;;6307363;28;20243;-55
2022/12/28 12:05:50;;;;;;;4.83;4.40;;;7.70;1.00;;;;;;6283739;28;20731;-56
2022/12/28 12:08:55;;;;;;;5.17;4.60;;;7.70;1.00;;;;;;6284689;28;20756;-55
2022/12/28 12:11:59;;;;;;;6.00;5.40;;;7.80;1.00;;;;;;6296819;28;20414;-56
2022/12/28 12:15:10;;;;;;;5.23;4.93;;;8.00;1.00;;;;;;6288930;28;20624;-55
2022/12/28 12:18:20;;;;;;;4.30;4.10;;;8.00;1.00;;;;;;6286519;28;20237;-55
2022/12/28 12:21:30;;;;;;;5.23;4.97;;;7.90;1.00;;;;;;6278476;28;20229;-55
2022/12/28 12:24:41;;;;;;;5.03;4.53;;;8.00;1.00;;;;;;6281790;28;20238;-55
2022/12/28 12:27:48;;;;;;;5.03;4.80;;;8.00;1.00;;;;;;6299654;28;20738;-56
2022/12/28 12:30:52;;;;;;;4.70;4.30;;;8.00;1.00;;;;;;6286359;28;20234;-56
2022/12/28 12:33:59;;;;;;;6.07;4.87;;;8.10;1.00;;;;;;6281798;28;20342;-56
2022/12/28 12:37:35;;;;;;;4.97;4.77;;;8.30;1.00;;;;;;6278448;28;20241;-57
2022/12/28 12:41:06;;;;;;;4.13;3.93;;;8.50;1.00;;;;;;6280993;28;20400;-56
2022/12/28 12:44:23;;;;;;;4.80;4.50;;;8.50;1.00;;;;;;6276307;28;20256;-57
2022/12/28 12:48:02;;;;;;;4.07;3.90;;;8.50;1.00;;;;;;6280716;28;20734;-56
2022/12/28 12:51:18;;;;;;;4.90;4.70;;;8.50;1.00;;;;;;6292136;28;20377;-56
2022/12/28 12:54:32;;;;;;;4.53;4.20;;;8.60;1.00;;;;;;6300113;28;20224;-55
2022/12/28 12:57:48;;;;;;;4.50;4.30;;;8.60;1.00;;;;;;6283225;28;20236;-56
2022/12/28 13:01:15;;;;;;;4.80;4.60;;;8.60;1.00;;;;;;6284509;28;20248;-55
2022/12/28 13:04:22;;;;;;;4.60;4.40;;;8.80;1.00;;;;;;6283139;28;20777;-56
2022/12/28 13:07:27;;;;;;;4.80;4.60;;;8.80;1.00;;;;;;6275502;28;20242;-57
2022/12/28 13:10:34;;;;;;;5.00;4.00;;;8.80;1.00;;;;;;6279854;28;20657;-55
2022/12/28 13:13:41;;;;;;;4.50;4.30;;;8.90;1.00;;;;;;6297586;28;20409;-55
2022/12/28 13:16:48;;;;;;;4.53;4.20;;;9.00;1.00;;;;;;6296751;28;20232;-57
2022/12/28 13:19:51;;;;;;;4.50;4.33;;;9.00;1.00;;;;;;6303534;28;20245;-57
2022/12/28 13:22:55;;;;;;;4.53;4.23;;;9.00;1.00;;;;;;6302430;28;20259;-56
2022/12/28 13:25:59;;;;;;;4.37;4.27;;;9.10;1.00;;;;;;6302081;28;20759;-55
2022/12/28 13:29:09;;;;;;;4.47;4.20;;;9.00;1.00;;;;;;6286493;28;20241;-55
2022/12/28 13:32:24;;;;;;;4.50;4.23;;;9.00;1.00;;;;;;6275144;28;20355;-56
2022/12/28 13:35:30;;;;;;;4.70;4.60;;;9.00;1.00;;;;;;6298311;28;20236;-56
2022/12/28 13:38:33;;;;;;;4.67;4.40;;;9.00;1.00;;;;;;6298576;28;20240;-56
2022/12/28 13:41:37;;;;;;;4.33;4.13;;;8.90;1.00;;;;;;6304498;28;20339;-55
2022/12/28 13:44:43;;;;;;;4.60;4.40;;;9.00;1.00;;;;;;6294964;28;20888;-56
2022/12/28 13:47:51;;;;;;;4.30;4.10;;;8.90;1.00;;;;;;6278189;28;20259;-56
2022/12/28 13:50:54;;;;;;;4.50;4.30;;;8.90;1.00;;;;;;6290587;28;20601;-56
2022/12/28 13:53:59;;;;;;;4.70;4.27;;;8.90;1.00;;;;;;6285040;28;20236;-57
2022/12/28 13:57:03;;;;;;;4.10;4.00;;;8.80;1.00;;;;;;6303255;28;20233;-55
2022/12/28 14:00:29;;;;;;;4.67;4.37;;;8.90;1.00;;;;;;6290374;28;20233;-55
2022/12/28 14:03:33;;;;;;;5.10;4.80;;;8.80;1.00;;;;;;6279565;28;20739;-56
2022/12/28 14:06:43;;;;;;;4.97;4.80;;;8.70;1.00;;;;;;6288313;28;20308;-57
2022/12/28 14:09:47;;;;;;;4.60;4.40;;;8.70;1.00;;;;;;6289319;28;20233;-55
2022/12/28 14:12:51;;;;;;;4.73;4.37;;;8.60;1.00;;;;;;6297646;28;20688;-54
2022/12/28 14:15:56;;;;;;;5.17;4.77;;;8.60;1.00;;;;;;6300237;28;20237;-55
2022/12/28 14:18:59;;;;;;;5.10;4.77;;;8.50;1.00;;;;;;6300923;28;20240;-55
2022/12/28 14:22:02;;;;;;;4.50;4.40;;;8.50;1.00;;;;;;6298230;28;20232;-55
2022/12/28 14:25:13;;;;;;;5.07;4.57;;;8.50;1.00;;;;;;6300025;28;20291;-57
2022/12/28 14:28:21;;;;;;;4.80;4.43;;;8.50;1.00;;;;;;6295528;28;20229;-56
2022/12/28 14:31:28;;;;;;;4.60;4.40;;;8.50;1.00;;;;;;6292001;28;20247;-57
2022/12/28 14:34:34;;;;;;;5.43;4.80;;;8.50;1.00;;;;;;6297587;28;20232;-55
2022/12/28 14:37:40;;;;;;;4.90;4.70;;;8.40;1.00;;;;;;6278683;28;20251;-54
2022/12/28 14:40:43;;;;;;;4.97;4.67;;;8.40;1.00;;;;;;6281765;28;20236;-55
2022/12/28 14:43:53;;;;;;;4.43;4.23;;;8.30;1.00;;;;;;6283224;28;20622;-55
2022/12/28 14:46:57;;;;;;;4.90;4.60;;;8.40;1.00;;;;;;6284364;28;20244;-57
2022/12/28 14:50:03;;;;;;;4.93;4.53;;;8.30;1.00;;;;;;6295640;28;20248;-55
2022/12/28 14:53:10;;;;;;;5.47;4.70;;;8.30;1.00;;;;;;6297959;28;20233;-56
2022/12/28 14:56:16;;;;;;;4.70;4.33;;;8.20;1.00;;;;;;6296440;28;20485;-55
2022/12/28 14:59:26;;;;;;;4.73;4.50;;;8.20;1.00;;;;;;6308560;28;20427;-56
2022/12/28 15:02:41;;;;;;;5.03;4.73;;;8.10;1.00;;;;;;6284208;28;20230;-56
2022/12/28 15:05:48;;;;;;;4.83;4.53;;;8.10;1.00;;;;;;6299777;28;20229;-57
2022/12/28 15:08:52;;;;;;;5.20;4.80;;;8.20;1.00;;;;;;6307234;28;20362;-56
2022/12/28 15:12:09;;;;;;;4.93;4.63;;;8.40;1.00;;;;;;6282578;28;20237;-56
2022/12/28 15:15:12;;;;;;;6.93;5.10;;;8.20;1.00;;;;;;6297108;28;20233;-56
2022/12/28 15:18:17;;;;;;;5.37;5.00;;;8.20;1.00;;;;;;6297724;28;20768;-56
2022/12/28 15:21:22;;;;;;;5.20;4.83;;;8.10;1.00;;;;;;6283882;28;20728;-55
2022/12/28 15:24:25;;;;;;;4.97;4.70;;;8.10;1.00;;;;;;6293197;28;20247;-56
2022/12/28 15:27:35;;;;;;;5.20;4.93;;;8.10;1.00;;;;;;6303113;28;20323;-56
2022/12/28 15:30:42;;;;;;;5.37;5.10;;;8.10;1.00;;;;;;6280657;28;20322;-55
2022/12/28 15:33:48;;;;;;;23.63;5.43;;;8.10;1.00;;;;;;6281361;28;20233;-55
2022/12/28 15:36:51;;;;;;;5.53;5.03;;;8.10;1.00;;;;;;6283108;28;20229;-55
2022/12/28 15:39:54;;;;;;;6.30;5.67;;;8.10;1.00;;;;;;6298671;28;20293;-56
2022/12/28 15:42:57;;;;;;;5.90;5.47;;;8.10;1.00;;;;;;6307364;28;20838;-56
2022/12/28 15:46:00;;;;;;;7.37;6.23;;;8.00;1.00;;;;;;6296239;28;20243;-55
2022/12/28 15:49:06;;;;;;;6.63;6.10;;;7.90;1.00;;;;;;6292608;28;20324;-55
2022/12/28 15:52:09;;;;;;;5.93;5.43;;;7.90;1.00;;;;;;6295618;28;20774;-55
2022/12/28 15:55:12;;;;;;;5.37;5.17;;;7.90;1.00;;;;;;6305784;28;20236;-56
2022/12/28 15:58:14;;;;;;;5.50;5.17;;;7.90;1.00;;;;;;6302236;28;20252;-56
2022/12/28 16:01:17;;;;;;;6.30;4.90;;;7.90;1.00;;;;;;6307198;28;20784;-57
2022/12/28 16:04:22;;;;;;;7.23;5.20;;;7.90;1.00;;;;;;6301387;28;20319;-59
2022/12/28 16:07:25;;;;;;;5.17;4.77;;;8.00;1.00;;;;;;6298347;27;20699;-58
2022/12/28 16:10:28;;;;;;;5.60;5.30;;;8.00;1.00;;;;;;6291345;28;20243;-56
2022/12/28 16:13:31;;;;;;;4.93;4.73;;;8.00;1.00;;;;;;6283315;28;20674;-57
2022/12/28 16:16:36;;;;;;;5.00;4.70;;;8.00;1.00;;;;;;6285271;28;20425;-57
2022/12/28 16:19:41;;;;;;;6.63;4.83;;;8.10;1.00;;;;;;6288877;28;20328;-60
2022/12/28 16:22:44;;;;;;;5.27;4.93;;;8.10;1.00;;;;;;6280632;28;20368;-59
2022/12/28 16:25:50;;;;;;;5.23;4.93;;;8.10;1.00;;;;;;6305079;28;20736;-55
2022/12/28 16:28:53;;;;;;;4.87;4.60;;;8.10;1.00;;;;;;6299247;28;20232;-56
2022/12/28 16:31:58;;;;;;;4.90;4.60;;;8.10;1.00;;;;;;6286038;28;20228;-56
2022/12/28 16:35:03;;;;;;;4.97;4.77;;;8.10;1.00;;;;;;6303874;28;20241;-55
2022/12/28 16:38:06;;;;;;;4.50;4.20;;;8.20;1.00;;;;;;6298336;27;20246;-55
2022/12/28 16:41:09;;;;;;;4.40;4.20;;;8.20;1.00;;;;;;6281936;28;20410;-56
2022/12/28 16:44:14;;;;;;;5.07;4.60;;;8.20;1.00;;;;;;6289567;28;20324;-58
2022/12/28 16:47:17;;;;;;;5.83;5.37;;;8.20;1.00;;;;;;6301467;27;20596;-56
2022/12/28 16:50:21;;;;;;;4.70;4.40;;;8.30;1.00;;;;;;6312598;27;20240;-56
2022/12/28 16:53:24;;;;;;;4.47;4.23;;;8.30;1.00;;;;;;6291516;28;20641;-55
2022/12/28 16:56:27;;;;;;;4.60;4.23;;;8.30;1.00;;;;;;6307171;28;20500;-56
2022/12/28 16:59:30;;;;;;;4.50;4.30;;;8.40;1.00;;;;;;6305251;28;20240;-56
2022/12/28 17:02:33;;;;;;;4.47;4.10;;;8.40;1.00;;;;;;6304365;28;20228;-57
2022/12/28 17:05:38;;;;;;;4.83;4.37;;;8.40;1.00;;;;;;6298265;28;20229;-55
2022/12/28 17:08:41;;;;;;;4.60;4.30;;;8.40;1.00;;;;;;6284330;28;20617;-57